Time;durP1;ratioP1;P1;durP2;ratioP2;P2;SDS_P1;SDS_P2;PMS_P1;PMS_P2;Temp;Humidity;BMP_temperature;BMP_pressure;BME280_temperature;BME280_humidity;BME280_pressure;Samples;Min_cycle;Max_cycle;Signal;HPM_P1;HPM_P2
2023/10/21 00:03:01;;;;;;;;;;;;;;;17.85;58.75;96654.22;10288608;28;731;-71
2023/10/21 00:07:57;;;;;;;;;;;;;;;17.83;58.61;96650.91;10288973;28;870;-70
2023/10/21 00:12:53;;;;;;;;;;;;;;;17.82;58.69;96655.34;10270598;28;1955;-71
2023/10/21 00:17:49;;;;;;;;;;;;;;;17.82;58.61;96660.63;10288651;28;993;-71
2023/10/21 00:22:45;;;;;;;;;;;;;;;17.80;58.86;96657.28;10287801;28;880;-71
2023/10/21 00:27:41;;;;;;;;;;;;;;;17.79;58.61;96660.91;10287078;28;1171;-71
2023/10/21 00:32:37;;;;;;;;;;;;;;;17.79;58.84;96670.56;10288665;28;1914;-71
2023/10/21 00:37:32;;;;;;;;;;;;;;;17.78;58.83;96661.00;10288027;28;865;-71
2023/10/21 00:42:28;;;;;;;;;;;;;;;17.78;58.90;96668.91;10278908;28;877;-71
2023/10/21 00:47:24;;;;;;;;;;;;;;;17.77;58.64;96678.63;10286752;28;1256;-71
2023/10/21 00:52:20;;;;;;;;;;;;;;;17.77;58.91;96683.06;10286827;28;1914;-71
2023/10/21 00:57:16;;;;;;;;;;;;;;;17.75;58.78;96683.19;10285866;28;942;-71
2023/10/21 01:02:12;;;;;;;;;;;;;;;17.74;58.83;96681.53;10286403;28;869;-71
2023/10/21 01:07:09;;;;;;;;;;;;;;;17.74;58.79;96684.16;10286415;28;820;-71
2023/10/21 01:12:05;;;;;;;;;;;;;;;17.73;58.85;96680.69;10286047;28;1973;-71
2023/10/21 01:17:01;;;;;;;;;;;;;;;17.71;58.82;96690.56;10285174;28;959;-71
2023/10/21 01:21:56;;;;;;;;;;;;;;;17.71;59.01;96694.97;10285624;28;935;-71
2023/10/21 01:26:52;;;;;;;;;;;;;;;17.71;59.01;96693.19;10285452;28;883;-71
2023/10/21 01:31:48;;;;;;;;;;;;;;;17.70;58.95;96704.69;10285195;28;1903;-71
2023/10/21 01:36:44;;;;;;;;;;;;;;;17.69;58.79;96703.03;10285907;28;848;-71
2023/10/21 01:41:40;;;;;;;;;;;;;;;17.68;58.80;96711.91;10284873;28;932;-71
2023/10/21 01:46:36;;;;;;;;;;;;;;;17.68;58.93;96711.91;10284299;28;790;-70
2023/10/21 01:51:32;;;;;;;;;;;;;;;17.68;59.00;96722.44;10284986;28;1969;-71
2023/10/21 01:56:28;;;;;;;;;;;;;;;17.67;58.86;96728.66;10285268;28;817;-71
2023/10/21 02:01:24;;;;;;;;;;;;;;;17.66;58.89;96728.81;10287736;28;813;-70
2023/10/21 02:06:19;;;;;;;;;;;;;;;17.67;58.93;96735.75;10298575;28;841;-71
2023/10/21 02:11:15;;;;;;;;;;;;;;;17.64;58.97;96739.50;10298161;28;1902;-71
2023/10/21 02:16:11;;;;;;;;;;;;;;;17.64;59.07;96739.50;10297848;28;786;-71
2023/10/21 02:21:07;;;;;;;;;;;;;;;17.64;58.97;96757.94;10297724;28;822;-71
2023/10/21 02:26:03;;;;;;;;;;;;;;;17.62;58.96;96749.31;10297720;28;839;-71
2023/10/21 02:30:59;;;;;;;;;;;;;;;17.62;59.03;96754.59;10297615;28;782;-71
2023/10/21 02:35:55;;;;;;;;;;;;;;;17.62;58.98;96754.59;10297440;28;1893;-71
2023/10/21 02:40:51;;;;;;;;;;;;;;;17.61;58.98;96752.94;10297261;28;993;-70
2023/10/21 02:45:48;;;;;;;;;;;;;;;17.61;58.78;96758.22;10297350;28;866;-71
2023/10/21 02:50:44;;;;;;;;;;;;;;;17.60;59.17;96766.22;10297013;28;1616;-70
2023/10/21 02:55:40;;;;;;;;;;;;;;;17.59;58.97;96770.66;10297071;28;1910;-70
2023/10/21 03:00:36;;;;;;;;;;;;;;;17.59;59.26;96775.94;10296530;28;1003;-71
2023/10/21 03:05:32;;;;;;;;;;;;;;;17.59;59.04;96785.66;10297054;28;824;-71
2023/10/21 03:10:28;;;;;;;;;;;;;;;17.57;59.16;96793.66;10296807;28;893;-71
2023/10/21 03:15:24;;;;;;;;;;;;;;;17.57;58.97;96804.22;10292054;28;1890;-71
2023/10/21 03:20:20;;;;;;;;;;;;;;;17.56;59.07;96805.19;10289697;28;951;-70
2023/10/21 03:25:17;;;;;;;;;;;;;;;17.55;59.21;96816.66;10290093;28;778;-71
2023/10/21 03:30:13;;;;;;;;;;;;;;;17.55;59.14;96824.56;10289856;28;888;-71
2023/10/21 03:35:09;;;;;;;;;;;;;;;17.54;58.87;96830.81;10290246;28;1952;-71
2023/10/21 03:40:05;;;;;;;;;;;;;;;17.54;59.00;96838.72;10289346;28;953;-71
2023/10/21 03:45:02;;;;;;;;;;;;;;;17.52;59.03;96846.75;10289360;28;932;-70
2023/10/21 03:49:57;;;;;;;;;;;;;;;17.52;59.29;96856.44;10288581;28;1106;-71
2023/10/21 03:54:53;;;;;;;;;;;;;;;17.51;59.19;96862.69;10288857;28;1910;-71
2023/10/21 03:59:49;;;;;;;;;;;;;;;17.51;59.10;96874.06;10289338;28;849;-71
2023/10/21 04:04:45;;;;;;;;;;;;;;;17.50;59.08;96889.97;10288522;28;913;-71
2023/10/21 04:09:41;;;;;;;;;;;;;;;17.50;59.02;96905.78;10288318;28;837;-70
2023/10/21 04:14:37;;;;;;;;;;;;;;;17.50;59.01;96924.22;10287537;28;1894;-71
2023/10/21 04:19:33;;;;;;;;;;;;;;;17.48;59.14;96931.44;10289204;28;841;-71
2023/10/21 04:24:29;;;;;;;;;;;;;;;17.56;58.96;96951.84;10287405;28;858;-71
2023/10/21 04:29:25;;;;;;;;;;;;;;;17.59;58.82;96960.31;10288237;28;763;-71
2023/10/21 04:34:20;;;;;;;;;;;;;;;17.62;58.74;96967.09;10287301;28;1887;-71
2023/10/21 04:39:16;;;;;;;;;;;;;;;17.63;58.84;96977.53;10287261;28;877;-71
2023/10/21 04:44:13;;;;;;;;;;;;;;;17.67;58.83;96997.34;10286324;28;930;-70
2023/10/21 04:49:09;;;;;;;;;;;;;;;17.70;58.61;97015.50;10286527;28;1403;-71
2023/10/21 04:54:05;;;;;;;;;;;;;;;17.72;58.46;97029.41;10286708;28;1918;-71
2023/10/21 04:59:01;;;;;;;;;;;;;;;17.74;58.65;97032.75;10286523;28;971;-71
2023/10/21 05:03:57;;;;;;;;;;;;;;;17.77;58.47;97047.44;10286899;28;979;-71
2023/10/21 05:08:53;;;;;;;;;;;;;;;17.79;58.34;97055.19;10286709;28;856;-71
2023/10/21 05:13:49;;;;;;;;;;;;;;;17.85;58.31;97065.25;10285903;28;1902;-71
2023/10/21 05:18:45;;;;;;;;;;;;;;;17.87;58.33;97085.25;10285801;28;821;-71
2023/10/21 05:23:40;;;;;;;;;;;;;;;17.92;58.15;97103.28;10285654;28;780;-71
2023/10/21 05:28:36;;;;;;;;;;;;;;;17.93;58.22;97113.69;10285438;28;779;-71
2023/10/21 05:33:32;;;;;;;;;;;;;;;17.96;58.12;97123.97;10286148;28;1890;-72
2023/10/21 05:38:28;;;;;;;;;;;;;;;18.02;58.15;97132.31;10282022;28;1169;-71
2023/10/21 05:43:24;;;;;;;;;;;;;;;18.05;58.07;97134.69;10284360;28;921;-71
2023/10/21 05:48:20;;;;;;;;;;;;;;;18.07;57.97;97148.56;10284631;28;907;-70
2023/10/21 05:53:16;;;;;;;;;;;;;;;18.09;57.89;97165.94;10283654;28;1917;-71
2023/10/21 05:58:12;;;;;;;;;;;;;;;18.10;58.00;97174.66;10283464;28;837;-70
2023/10/21 06:03:08;;;;;;;;;;;;;;;18.12;57.86;97183.28;10284870;28;786;-71
2023/10/21 06:08:04;;;;;;;;;;;;;;;18.13;57.94;97190.22;10284493;28;829;-70
2023/10/21 06:13:00;;;;;;;;;;;;;;;18.12;58.04;97196.47;10284080;28;1957;-69
2023/10/21 06:17:56;;;;;;;;;;;;;;;18.10;57.95;97209.81;10283968;28;832;-70
2023/10/21 06:22:52;;;;;;;;;;;;;;;18.10;58.01;97222.97;10284313;28;899;-71
2023/10/21 06:27:48;;;;;;;;;;;;;;;18.08;58.34;97232.81;10284191;28;821;-70
2023/10/21 06:32:43;;;;;;;;;;;;;;;18.10;58.22;97248.47;10284080;28;1902;-71
2023/10/21 06:37:39;;;;;;;;;;;;;;;18.07;58.33;97260.13;10284025;28;948;-71
2023/10/21 06:42:35;;;;;;;;;;;;;;;18.08;58.21;97259.16;10282822;28;861;-70
2023/10/21 06:47:32;;;;;;;;;;;;;;;18.09;58.34;97266.09;10285053;28;958;-72
2023/10/21 06:52:28;;;;;;;;;;;;;;;18.12;58.47;97286.94;10291211;28;1887;-70
2023/10/21 06:57:23;;;;;;;;;;;;;;;18.13;58.48;97301.81;10291191;28;786;-71
2023/10/21 07:02:19;;;;;;;;;;;;;;;18.14;58.46;97308.72;10291739;28;889;-70
2023/10/21 07:07:15;;;;;;;;;;;;;;;18.16;58.38;97319.16;10290805;28;895;-70
2023/10/21 07:12:12;;;;;;;;;;;;;;;18.17;58.36;97326.94;10291702;28;1897;-70
2023/10/21 07:17:08;;;;;;;;;;;;;;;18.19;58.33;97334.72;10291474;28;932;-73
2023/10/21 07:22:04;;;;;;;;;;;;;;;18.18;58.26;97344.44;10290779;28;821;-74
2023/10/21 07:27:01;;;;;;;;;;;;;;;18.18;58.37;97360.25;10289974;28;967;-73
2023/10/21 07:31:57;;;;;;;;;;;;;;;18.23;58.25;97372.22;10289355;28;1898;-70
2023/10/21 07:36:52;;;;;;;;;;;;;;;18.25;58.25;97383.47;10289116;28;865;-70
2023/10/21 07:41:48;;;;;;;;;;;;;;;18.26;58.16;97375.44;10289743;28;944;-71
2023/10/21 07:46:44;;;;;;;;;;;;;;;18.30;58.07;97391.84;10289925;28;916;-70
2023/10/21 07:51:40;;;;;;;;;;;;;;;18.29;58.06;97398.09;10289286;28;1910;-71
2023/10/21 07:56:37;;;;;;;;;;;;;;;18.28;58.21;97406.94;10289017;28;787;-70
2023/10/21 08:01:33;;;;;;;;;;;;;;;18.28;58.36;97420.97;10287755;28;864;-70
2023/10/21 08:06:29;;;;;;;;;;;;;;;18.31;58.21;97419.88;10288617;28;967;-70
2023/10/21 08:11:25;;;;;;;;;;;;;;;18.30;58.21;97434.88;10288320;28;1894;-69
2023/10/21 08:16:22;;;;;;;;;;;;;;;18.32;58.22;97453.22;10288196;28;822;-70
2023/10/21 08:21:18;;;;;;;;;;;;;;;18.31;58.16;97456.78;10288561;28;858;-70
2023/10/21 08:26:14;;;;;;;;;;;;;;;18.31;58.12;97462.06;10287716;28;915;-70
2023/10/21 08:31:10;;;;;;;;;;;;;;;18.31;57.84;97486.66;10287615;28;861;-70
2023/10/21 08:36:05;;;;;;;;;;;;;;;18.32;57.84;97492.78;10287416;28;1878;-70
2023/10/21 08:41:01;;;;;;;;;;;;;;;18.33;57.89;97502.34;10287804;28;809;-69
2023/10/21 08:45:59;;;;;;;;;;;;;;;18.32;57.99;97511.22;10286481;28;944;-69
2023/10/21 08:50:55;;;;;;;;;;;;;;;18.32;57.93;97519.16;10286703;28;1135;-70
2023/10/21 08:55:51;;;;;;;;;;;;;;;18.33;57.80;97524.28;10286908;28;1979;-70
2023/10/21 09:00:46;;;;;;;;;;;;;;;18.33;57.66;97532.19;10287084;28;881;-70
2023/10/21 09:05:42;;;;;;;;;;;;;;;18.37;57.89;97553.91;10269044;28;1647;-70
2023/10/21 09:10:39;;;;;;;;;;;;;;;18.36;57.87;97560.94;10285997;28;972;-70
2023/10/21 09:15:35;;;;;;;;;;;;;;;18.34;57.71;97567.34;10285788;28;1965;-70
2023/10/21 09:20:34;;;;;;;;;;;;;;;18.33;57.77;97584.09;10285719;28;801;-70
2023/10/21 09:25:30;;;;;;;;;;;;;;;18.29;57.85;97595.88;10286266;28;845;-70
2023/10/21 09:30:25;;;;;;;;;;;;;;;18.28;57.55;97602.09;10285421;28;901;-70
2023/10/21 09:35:21;;;;;;;;;;;;;;;18.24;57.72;97611.22;10285918;28;1890;-70
2023/10/21 09:40:17;;;;;;;;;;;;;;;18.25;57.77;97620.78;10285716;28;875;-70
2023/10/21 09:45:13;;;;;;;;;;;;;;;18.25;57.71;97618.16;10284994;28;800;-70
2023/10/21 09:50:10;;;;;;;;;;;;;;;18.21;57.79;97629.88;10285269;28;1128;-70
2023/10/21 09:55:07;;;;;;;;;;;;;;;18.17;57.55;97624.88;10284706;28;1923;-70
2023/10/21 10:00:03;;;;;;;;;;;;;;;18.14;57.48;97646.19;10284617;28;987;-70
2023/10/21 10:05:00;;;;;;;;;;;;;;;18.13;57.23;97644.53;10284823;28;997;-70
2023/10/21 10:09:56;;;;;;;;;;;;;;;18.12;57.34;97639.38;10285114;28;879;-70
2023/10/21 10:14:54;;;;;;;;;;;;;;;18.10;57.36;97650.06;10284054;28;1898;-70
2023/10/21 10:19:51;;;;;;;;;;;;;;;18.11;57.30;97649.09;10284043;28;835;-70
2023/10/21 10:24:46;;;;;;;;;;;;;;;18.08;57.53;97656.41;10289318;28;772;-70
2023/10/21 10:29:43;;;;;;;;;;;;;;;18.09;57.59;97652.81;10292122;28;940;-71
2023/10/21 10:34:38;;;;;;;;;;;;;;;18.08;57.53;97659.88;10292387;28;1955;-70
2023/10/21 10:39:35;;;;;;;;;;;;;;;18.07;57.55;97671.34;10291142;28;874;-70
2023/10/21 10:44:30;;;;;;;;;;;;;;;18.03;57.87;97667.31;10292089;28;821;-70
2023/10/21 10:49:27;;;;;;;;;;;;;;;18.02;57.39;97691.97;10288405;28;1447;-71
2023/10/21 10:54:22;;;;;;;;;;;;;;;18.03;57.65;97700.72;10290521;28;1902;-71
2023/10/21 10:59:18;;;;;;;;;;;;;;;18.03;57.43;97698.94;10290951;28;889;-70
2023/10/21 11:04:14;;;;;;;;;;;;;;;18.05;57.42;97696.16;10290936;28;863;-70
2023/10/21 11:09:20;;;;;;;;;;;;;;;18.03;57.56;97711.28;10290590;28;760;-70
2023/10/21 11:14:16;;;;;;;;;;;;;;;18.03;57.59;97706.00;10291024;28;1898;-70
2023/10/21 11:19:12;;;;;;;;;;;;;;;18.00;57.69;97720.25;10290782;28;842;-69
2023/10/21 11:24:08;;;;;;;;;;;;;;;17.96;57.93;97721.44;10290003;28;772;-71
2023/10/21 11:29:05;;;;;;;;;;;;;;;17.93;58.02;97721.69;10289687;28;966;-69
2023/10/21 11:34:01;;;;;;;;;;;;;;;17.93;58.00;97726.94;10288591;28;1894;-70
2023/10/21 11:38:57;;;;;;;;;;;;;;;17.90;58.13;97730.66;10288918;28;892;-70
2023/10/21 11:43:53;;;;;;;;;;;;;;;17.90;57.89;97743.00;10289169;28;978;-71
2023/10/21 11:48:52;;;;;;;;;;;;;;;17.87;58.05;97754.63;10288909;28;1524;-70
2023/10/21 11:53:48;;;;;;;;;;;;;;;17.86;58.10;97752.91;10288740;28;1967;-68
2023/10/21 12:34:35;;;;;;;;;;;;;;;18.14;56.96;97762.22;10287297;28;1958;-68
2023/10/21 12:44:47;;;;;;;;;;;;;;;18.24;56.32;97753.63;10286672;28;963;-68
2023/10/21 12:49:43;;;;;;;;;;;;;;;18.27;56.51;97758.66;10287720;28;1129;-70
2023/10/21 12:54:39;;;;;;;;;;;;;;;18.30;56.56;97769.78;10286394;28;1972;-71
2023/10/21 12:59:36;;;;;;;;;;;;;;;18.51;55.80;97763.81;10285908;28;913;-71
2023/10/21 13:04:32;;;;;;;;;;;;;;;18.52;55.77;97765.50;10287020;28;893;-71
2023/10/21 13:09:29;;;;;;;;;;;;;;;18.59;55.60;97777.25;10286809;28;861;-71
2023/10/21 13:14:27;;;;;;;;;;;;;;;18.71;55.12;97791.31;10286527;28;1902;-70
2023/10/21 13:19:24;;;;;;;;;;;;;;;18.84;55.01;97789.41;10285200;28;965;-70
2023/10/21 13:24:20;;;;;;;;;;;;;;;18.91;54.78;97793.22;10285603;28;903;-70
2023/10/21 13:29:16;;;;;;;;;;;;;;;18.96;54.42;97792.88;10285476;28;1151;-71
2023/10/21 13:34:12;;;;;;;;;;;;;;;19.13;54.39;97802.09;10285890;28;1902;-71
2023/10/21 13:39:15;;;;;;;;;;;;;;;18.82;55.03;97801.88;10285245;28;790;-71
2023/10/21 13:44:11;;;;;;;;;;;;;;;18.82;54.75;97804.53;10285703;28;791;-70
2023/10/21 13:49:13;;;;;;;;;;;;;;;18.78;54.98;97797.78;10284937;28;1464;-70
2023/10/21 13:54:10;;;;;;;;;;;;;;;18.79;55.08;97807.41;10284701;28;1910;-71
2023/10/21 13:59:09;;;;;;;;;;;;;;;18.64;55.09;97808.56;10283857;28;1021;-70
2023/10/21 14:04:05;;;;;;;;;;;;;;;18.62;55.28;97824.50;10284620;28;811;-71
2023/10/21 14:09:02;;;;;;;;;;;;;;;18.57;55.28;97819.56;10284455;28;1017;-70
2023/10/21 14:13:58;;;;;;;;;;;;;;;18.98;54.32;97820.81;10283775;28;1898;-70
2023/10/21 14:18:54;;;;;;;;;;;;;;;19.18;54.01;97829.00;10283814;28;828;-70
2023/10/21 14:23:49;;;;;;;;;;;;;;;19.16;54.18;97833.56;10283805;28;983;-70
2023/10/21 14:28:47;;;;;;;;;;;;;;;18.92;54.90;97842.44;10283568;28;904;-71
2023/10/21 14:33:43;;;;;;;;;;;;;;;18.78;55.12;97854.06;10283991;28;1894;-71
2023/10/21 14:38:39;;;;;;;;;;;;;;;18.74;55.20;97851.75;10283936;28;790;-71
2023/10/21 14:43:35;;;;;;;;;;;;;;;18.74;55.13;97851.75;10283957;28;766;-70
2023/10/21 14:48:31;;;;;;;;;;;;;;;18.74;55.09;97859.69;10284495;28;815;-71
2023/10/21 14:53:27;;;;;;;;;;;;;;;18.75;55.24;97874.56;10285152;28;1913;-70
2023/10/21 14:58:23;;;;;;;;;;;;;;;19.16;54.25;97866.06;10284409;28;855;-70
2023/10/21 15:03:19;;;;;;;;;;;;;;;19.35;53.89;97870.72;10283470;28;918;-71
2023/10/21 15:08:19;;;;;;;;;;;;;;;19.39;54.20;97872.19;10285185;28;944;-71
2023/10/21 15:13:15;;;;;;;;;;;;;;;19.46;53.99;97870.72;10291256;28;1890;-69
2023/10/21 15:18:11;;;;;;;;;;;;;;;19.46;54.10;97876.00;10291139;28;829;-70
2023/10/21 15:23:07;;;;;;;;;;;;;;;19.38;54.15;97869.66;10290575;28;893;-70
2023/10/21 15:28:04;;;;;;;;;;;;;;;19.37;54.45;97867.97;10290825;28;813;-70
2023/10/21 15:32:59;;;;;;;;;;;;;;;19.21;54.56;97878.94;10290607;28;1903;-70
2023/10/21 15:37:55;;;;;;;;;;;;;;;19.06;55.06;97888.88;10289166;28;834;-70
2023/10/21 15:42:51;;;;;;;;;;;;;;;19.03;55.05;97889.13;10290293;28;889;-70
2023/10/21 15:47:47;;;;;;;;;;;;;;;19.02;55.28;97901.50;10289908;28;1171;-70
2023/10/21 15:52:45;;;;;;;;;;;;;;;19.00;55.31;97902.56;10288955;28;1918;-70
2023/10/21 15:57:41;;;;;;;;;;;;;;;18.99;55.28;97917.59;10288450;28;1186;-70
2023/10/21 16:02:37;;;;;;;;;;;;;;;18.98;55.59;97926.44;10288868;28;758;-70
2023/10/21 16:07:33;;;;;;;;;;;;;;;18.95;55.72;97937.25;10288831;28;805;-70
2023/10/21 16:12:29;;;;;;;;;;;;;;;18.93;55.79;97935.69;10289005;28;1902;-70
2023/10/21 16:17:25;;;;;;;;;;;;;;;18.93;55.78;97947.06;10287773;28;871;-69
2023/10/21 16:22:20;;;;;;;;;;;;;;;18.90;55.87;97949.13;10287331;28;936;-70
2023/10/21 16:27:16;;;;;;;;;;;;;;;18.89;55.78;97944.78;10287927;28;871;-70
2023/10/21 16:32:12;;;;;;;;;;;;;;;18.88;55.97;97949.22;10288265;28;1957;-70
2023/10/21 16:37:08;;;;;;;;;;;;;;;18.90;55.76;97954.41;10287558;28;755;-70
2023/10/21 16:42:04;;;;;;;;;;;;;;;18.90;55.86;97957.88;10269606;28;1582;-75
2023/10/21 16:47:00;;;;;;;;;;;;;;;18.86;55.72;97955.56;10287616;28;877;-75
2023/10/21 16:51:56;;;;;;;;;;;;;;;18.88;55.64;97961.59;10287681;28;1973;-69
2023/10/21 16:56:52;;;;;;;;;;;;;;;18.90;55.79;97973.72;10287370;28;862;-70
2023/10/21 17:01:47;;;;;;;;;;;;;;;18.91;55.73;97982.47;10287147;28;841;-70
2023/10/21 17:06:43;;;;;;;;;;;;;;;18.91;55.75;97979.81;10286389;28;960;-70
2023/10/21 17:11:39;;;;;;;;;;;;;;;18.90;55.83;97976.34;10286789;28;818;-70
2023/10/21 17:16:35;;;;;;;;;;;;;;;18.90;55.87;97986.06;10285958;28;1940;-69
2023/10/21 17:21:31;;;;;;;;;;;;;;;18.91;55.78;97985.94;10285835;28;975;-70
2023/10/21 17:26:27;;;;;;;;;;;;;;;18.92;55.73;97979.72;10285664;28;861;-70
2023/10/21 17:31:23;;;;;;;;;;;;;;;18.92;55.64;97987.66;10285471;28;871;-69
2023/10/21 17:36:19;;;;;;;;;;;;;;;18.90;55.71;97989.56;10285403;28;1961;-70
2023/10/21 17:41:15;;;;;;;;;;;;;;;18.95;55.80;98000.59;10285776;28;857;-70
2023/10/21 17:46:11;;;;;;;;;;;;;;;18.92;55.89;97990.28;10285026;28;778;-70
2023/10/21 17:51:07;;;;;;;;;;;;;;;18.91;55.87;98001.78;10285067;28;1223;-70
2023/10/21 17:56:04;;;;;;;;;;;;;;;18.92;55.71;98000.00;10284812;28;1907;-70
2023/10/21 18:01:01;;;;;;;;;;;;;;;18.92;55.81;98000.84;10284669;28;843;-71
2023/10/21 18:05:57;;;;;;;;;;;;;;;18.95;55.89;97995.31;10284508;28;966;-70
2023/10/21 18:10:53;;;;;;;;;;;;;;;18.96;55.74;98002.28;10285127;28;1016;-70
2023/10/21 18:15:48;;;;;;;;;;;;;;;18.94;55.71;98009.50;10284392;28;1890;-70
2023/10/21 18:20:44;;;;;;;;;;;;;;;18.95;55.80;98023.53;10284327;28;873;-71
2023/10/21 18:25:40;;;;;;;;;;;;;;;18.96;55.79;98023.41;10284799;28;774;-70
2023/10/21 18:30:36;;;;;;;;;;;;;;;18.97;55.62;98027.75;10284903;28;996;-71
2023/10/21 18:35:32;;;;;;;;;;;;;;;18.98;55.95;98033.84;10283368;28;1890;-70
2023/10/21 18:40:28;;;;;;;;;;;;;;;18.96;55.95;98031.31;10283388;28;837;-70
2023/10/21 18:45:24;;;;;;;;;;;;;;;18.97;55.78;98030.38;10289037;28;833;-70
2023/10/21 18:50:20;;;;;;;;;;;;;;;19.00;55.81;98035.44;10292261;28;1314;-70
2023/10/21 18:55:16;;;;;;;;;;;;;;;18.99;55.82;98033.75;10291963;28;1967;-71
2023/10/21 19:00:12;;;;;;;;;;;;;;;19.00;55.88;98039.88;10291301;28;767;-71
2023/10/21 19:05:08;;;;;;;;;;;;;;;19.00;55.93;98045.16;10291091;28;762;-70
2023/10/21 19:10:04;;;;;;;;;;;;;;;19.00;55.85;98045.16;10291379;28;851;-71
2023/10/21 19:15:00;;;;;;;;;;;;;;;19.01;55.72;98044.19;10291517;28;1894;-71
2023/10/21 19:19:56;;;;;;;;;;;;;;;19.01;55.80;98047.66;10290520;28;769;-70
2023/10/21 19:24:52;;;;;;;;;;;;;;;19.01;56.00;98057.38;10290372;28;814;-70
2023/10/21 19:29:48;;;;;;;;;;;;;;;18.99;55.81;98060.16;10290727;28;883;-71
2023/10/21 19:34:44;;;;;;;;;;;;;;;18.98;55.82;98068.19;10290727;28;1960;-70
2023/10/21 19:39:40;;;;;;;;;;;;;;;18.98;56.01;98058.47;10289840;28;1016;-70
2023/10/21 19:44:36;;;;;;;;;;;;;;;18.97;55.92;98054.16;10289601;28;825;-71
2023/10/21 19:49:32;;;;;;;;;;;;;;;18.95;55.94;98063.97;10289235;28;1255;-71
2023/10/21 19:54:27;;;;;;;;;;;;;;;18.93;56.08;98071.16;10288355;28;1914;-71
2023/10/21 19:59:23;;;;;;;;;;;;;;;18.91;56.22;98078.34;10289499;28;957;-71
2023/10/21 20:04:19;;;;;;;;;;;;;;;18.89;56.07;98082.06;10289064;28;842;-71
2023/10/21 20:09:15;;;;;;;;;;;;;;;18.85;56.19;98081.44;10288702;28;930;-71
2023/10/21 20:14:11;;;;;;;;;;;;;;;18.82;56.27;98087.81;10288296;28;1963;-71
2023/10/21 20:19:07;;;;;;;;;;;;;;;18.82;56.31;98089.59;10288890;28;866;-71
2023/10/21 20:24:03;;;;;;;;;;;;;;;18.79;56.38;98084.56;10287709;28;900;-70
2023/10/21 20:28:59;;;;;;;;;;;;;;;18.75;56.52;98083.91;10287979;28;857;-71
2023/10/21 20:33:54;;;;;;;;;;;;;;;18.73;56.44;98085.81;10287068;28;1898;-71
2023/10/21 20:38:50;;;;;;;;;;;;;;;18.72;56.42;98089.41;10287559;28;762;-71
2023/10/21 20:43:48;;;;;;;;;;;;;;;18.69;56.57;98094.06;10286647;28;794;-71
2023/10/21 20:48:44;;;;;;;;;;;;;;;18.68;56.39;98093.22;10287472;28;1096;-71
2023/10/21 20:53:40;;;;;;;;;;;;;;;18.66;56.42;98099.56;10287730;28;1914;-71
2023/10/21 20:58:35;;;;;;;;;;;;;;;18.63;56.66;98098.00;10287944;28;867;-70
2023/10/21 21:03:31;;;;;;;;;;;;;;;18.60;56.46;98106.13;10287350;28;770;-71
2023/10/21 21:08:28;;;;;;;;;;;;;;;18.58;56.62;98087.78;10286059;28;1015;-71
2023/10/21 21:13:24;;;;;;;;;;;;;;;18.59;56.53;98107.91;10286116;28;1957;-71
2023/10/21 21:18:20;;;;;;;;;;;;;;;18.56;56.53;98102.03;10286634;28;782;-71
2023/10/21 21:23:16;;;;;;;;;;;;;;;18.54;56.73;98102.13;10286544;28;856;-71
2023/10/21 21:28:12;;;;;;;;;;;;;;;18.53;56.45;98102.25;10285942;28;908;-71
2023/10/21 21:33:08;;;;;;;;;;;;;;;18.51;56.67;98104.16;10285898;28;1902;-71
2023/10/21 21:38:04;;;;;;;;;;;;;;;18.50;56.58;98097.22;10286028;28;945;-71
2023/10/21 21:43:00;;;;;;;;;;;;;;;18.47;56.44;98102.69;10285418;28;866;-71
2023/10/21 21:47:56;;;;;;;;;;;;;;;18.44;56.50;98105.56;10285125;28;1007;-71
2023/10/21 21:52:51;;;;;;;;;;;;;;;18.43;56.44;98111.78;10284854;28;1969;-71
2023/10/21 21:57:48;;;;;;;;;;;;;;;18.41;56.36;98096.06;10284248;28;852;-71
2023/10/21 22:02:43;;;;;;;;;;;;;;;18.42;56.59;98105.69;10284693;28;835;-71
2023/10/21 22:07:39;;;;;;;;;;;;;;;18.41;56.68;98103.97;10284622;28;779;-71
2023/10/21 22:12:35;;;;;;;;;;;;;;;18.40;56.61;98103.13;10284337;28;1957;-71
2023/10/21 22:17:31;;;;;;;;;;;;;;;18.36;56.69;98099.03;10284444;28;759;-71
2023/10/21 22:22:27;;;;;;;;;;;;;;;18.35;56.67;98107.06;10292090;28;1019;-71
2023/10/21 22:27:27;;;;;;;;;;;;;;;18.33;56.64;98104.53;10292028;28;837;-71
2023/10/21 22:32:23;;;;;;;;;;;;;;;18.34;56.73;98108.03;10292321;28;1889;-71
2023/10/21 22:37:18;;;;;;;;;;;;;;;18.30;56.62;98107.38;10292827;28;757;-71
2023/10/21 22:42:14;;;;;;;;;;;;;;;18.30;56.95;98098.63;10292244;28;968;-70
2023/10/21 22:47:10;;;;;;;;;;;;;;;18.28;56.75;98104.00;10291867;28;814;-70
2023/10/21 22:52:08;;;;;;;;;;;;;;;18.26;56.83;98105.06;10291805;28;1922;-71
2023/10/21 22:57:05;;;;;;;;;;;;;;;18.24;56.92;98110.47;10291983;28;839;-71
2023/10/21 23:02:01;;;;;;;;;;;;;;;18.23;56.78;98115.84;10291318;28;829;-71
2023/10/21 23:06:57;;;;;;;;;;;;;;;18.20;56.87;98130.09;10291675;28;854;-70
2023/10/21 23:11:53;;;;;;;;;;;;;;;18.18;56.98;98130.22;10291193;28;766;-71
2023/10/21 23:16:49;;;;;;;;;;;;;;;18.17;56.94;98136.41;10290642;28;1961;-71
2023/10/21 23:21:45;;;;;;;;;;;;;;;18.15;56.79;98130.41;10290435;28;902;-71
2023/10/21 23:26:40;;;;;;;;;;;;;;;18.15;56.94;98143.59;10291014;28;807;-71
2023/10/21 23:31:36;;;;;;;;;;;;;;;18.14;56.81;98133.16;10289970;28;879;-71
2023/10/21 23:36:32;;;;;;;;;;;;;;;18.12;56.72;98135.91;10289735;28;1878;-71
2023/10/21 23:41:29;;;;;;;;;;;;;;;18.11;56.64;98139.50;10289509;28;1333;-71
2023/10/21 23:46:25;;;;;;;;;;;;;;;18.09;56.63;98138.75;10289527;28;922;-71
2023/10/21 23:51:21;;;;;;;;;;;;;;;18.10;56.77;98156.28;10290048;28;1120;-71
2023/10/21 23:56:20;;;;;;;;;;;;;;;18.08;57.01;98159.97;10289155;28;1906;-71
